Flag for Argentina

Past Weather in 45°51'40.8"S, 67°28'06.3"W, Argentina — Yesterday and Last 2 Weeks

Currently: 37 °F. Clear. (Weather station: Comodoro Rivadavia Aerodrome, Argentina). See more current weather

Past Weather in 45°51'40.8"S, 67°28'06.3"W — Graph

°F

45°51'40.8"S, 67°28'06.3"W Temperature Yesterday

Maximum temperature yesterday: 45 °F (at 3:00 pm)
Minimum temperature yesterday: 27 °F (at 9:00 am)
Average temperature yesterday: 34 °F

High & Low Weather Summary for the Past Weeks

 TemperatureHumidityPressure
High61 °F (May 15, 12:00 pm)93% (May 12, 7:00 pm)30.54 "Hg (May 12, 7:00 pm)
Low27 °F (May 24, 2:00 am)23% (May 24, 4:00 pm)29.62 "Hg (May 20, 5:00 am)
Average43 °F60%30.15 "Hg
* Reported May 11 8:00 pm — May 26 8:00 pm, 45°51'40.8"S, 67°28'06.3"W. Weather by CustomWeather, © 2024

Note: Actual official high and low records may vary slightly from our data, if they occured in-between our weather recording intervals... More about our weather records

45°51'40.8"S, 67°28'06.3"W Weather History for the Previous 24 Hours

Scroll right to see more
 ConditionsComfort  
Time TempWeatherWind HumidityBarometerVisibility
8:00 pm
Sun, May 26
39 °FClear.7 mph65%30.12 "Hg10 mi
7:00 pm39 °FClear.6 mph65%30.12 "Hg10 mi
6:00 pm48 °FClear.5 mph50%30.12 "Hg10 mi
5:00 pm52 °FSunny.8 mph44%30.12 "Hg10 mi
4:00 pm52 °FSunny.10 mph44%30.12 "Hg10 mi
3:00 pm52 °FPassing clouds.12 mph44%30.12 "HgN/A
2:00 pm50 °FPassing clouds.10 mph47%30.15 "HgN/A
1:00 pm50 °FSunny.3 mph47%30.18 "Hg10 mi
12:00 pm48 °FPassing clouds.3 mph50%30.21 "HgN/A
11:00 am45 °FSunny.2 mph57%30.21 "Hg10 mi
10:00 am43 °FPassing clouds.3 mph57%30.24 "HgN/A
9:00 am37 °FSunny.6 mph75%30.24 "Hg10 mi
8:00 am37 °FClear.5 mph70%30.24 "Hg10 mi
7:00 am34 °FClear.1 mph81%30.27 "Hg10 mi
6:00 am32 °FClear.6 mph80%30.27 "Hg10 mi
5:00 am30 °FClear.3 mph80%30.30 "Hg10 mi
4:00 am32 °FClear.7 mph75%30.33 "Hg10 mi
3:00 am27 °FPassing clouds.3 mph86%30.33 "HgN/A
2:00 am27 °FClear.1 mph86%30.36 "Hg10 mi
1:00 am28 °FClear.5 mph80%30.36 "Hg10 mi
12:00 am28 °FClear.2 mph80%30.39 "Hg10 mi
11:00 pm
Sat, May 25
30 °FClear.5 mph75%30.39 "Hg10 mi
10:00 pm30 °FClear.7 mph75%30.42 "Hg10 mi
9:00 pm30 °FClear.7 mph75%30.42 "Hg10 mi
Weather by CustomWeather, © 2024

See weather overview